This is the latest recevied weather packets stored in our database for station/object HK6REC-25. If no packets are shown the sender has not sent any weather packets the latest 10 day(s).
| Time | Temp. | Humidity | Pressure | Rain* | Wind** | Luminosity | Snow |
|---|---|---|---|---|---|---|---|
| 1778178986 | 23.33° C | 60% | 1009 hPa | 0 mm | - | - | - |
| 1778177185 | 23.33° C | 64% | 1010 hPa | 0 mm | - | - | - |
| 1778175384 | 24.44° C | 64% | 1011 hPa | 0 mm | - | - | - |
| 1778173583 | 25.56° C | 64% | 1012 hPa | 0 mm | - | - | - |
| 1778171782 | 26.67° C | 64% | 1012 hPa | 0 mm | - | - | - |
| 1778169981 | 21.67° C | 73% | 1014 hPa | 0 mm | - | - | - |
| 1778168180 | 19.44° C | 76% | 1014 hPa | 0 mm | - | - | - |
| 1778166378 | 20.56° C | 76% | 1015 hPa | 0 mm | - | - | - |
| 1778164577 | 17.78° C | 80% | 1015 hPa | 0 mm | - | - | - |
| 1778162776 | 18.89° C | 80% | 1015 hPa | 0 mm | - | - | - |
| 1778160975 | 17.22° C | 86% | 1015 hPa | 0 mm | - | - | - |
| 1778159174 | 18.33° C | 86% | 1015 hPa | 0 mm | - | - | - |
| 1778157373 | 15.56° C | 89% | 1015 hPa | 0 mm | - | - | - |
| 1778155572 | 13.89° C | 90% | 1015 hPa | 0 mm | - | - | - |
| 1778153771 | 15° C | 90% | 1015 hPa | 0 mm | - | - | - |
| 1778151970 | 12.78° C | 90% | 1015 hPa | 0 mm | - | - | - |
| 1778150169 | 13.89° C | 90% | 1015 hPa | 0 mm | - | - | - |
| 1778148368 | 12.78° C | 89% | 1015 hPa | 0 mm | - | - | - |
| 1778146567 | 13.89° C | 89% | 1015 hPa | 0 mm | - | - | - |
| 1778144766 | 12.22° C | 88% | 1015 hPa | 0 mm | - | - | - |
| 1778142965 | 13.33° C | 88% | 1014 hPa | 0 mm | - | - | - |
| 1778141164 | 14.44° C | 88% | 1015 hPa | 0 mm | - | - | - |
| 1778139363 | 12.78° C | 93% | 1014 hPa | 0 mm | - | - | - |
| 1778137562 | 13.89° C | 93% | 1015 hPa | 0 mm | - | - | - |
| 1778135761 | 15° C | 93% | 1015 hPa | 0 mm | - | - | - |
* Rain latest hour (hover to see other rain measurements)
** Current wind speed in m/s (hover to see current wind gust speed)